sensor_id;sensor_type;location;lat;lon;timestamp;P1;durP1;ratioP1;P2;durP2;ratioP2
43457;SDS011;29046;54.184;18.680;2023-02-28T00:01:20;13.57;;;4.20;;
43457;SDS011;29046;54.184;18.680;2023-02-28T00:03:47;8.65;;;3.95;;
43457;SDS011;29046;54.184;18.680;2023-02-28T00:06:15;10.05;;;3.92;;
43457;SDS011;29046;54.184;18.680;2023-02-28T00:08:42;8.98;;;4.47;;
43457;SDS011;29046;54.184;18.680;2023-02-28T00:11:11;12.60;;;6.88;;
43457;SDS011;29046;54.184;18.680;2023-02-28T00:13:41;13.35;;;6.45;;
43457;SDS011;29046;54.184;18.680;2023-02-28T00:16:13;12.93;;;6.10;;
43457;SDS011;29046;54.184;18.680;2023-02-28T00:18:42;18.30;;;10.05;;
43457;SDS011;29046;54.184;18.680;2023-02-28T00:21:10;21.63;;;10.30;;
43457;SDS011;29046;54.184;18.680;2023-02-28T00:23:37;19.02;;;8.82;;
43457;SDS011;29046;54.184;18.680;2023-02-28T00:26:04;17.00;;;7.13;;
43457;SDS011;29046;54.184;18.680;2023-02-28T00:28:31;19.48;;;9.88;;
43457;SDS011;29046;54.184;18.680;2023-02-28T00:30:59;25.38;;;10.80;;
43457;SDS011;29046;54.184;18.680;2023-02-28T00:33:27;52.60;;;19.52;;
43457;SDS011;29046;54.184;18.680;2023-02-28T00:36:02;68.55;;;25.73;;
43457;SDS011;29046;54.184;18.680;2023-02-28T00:38:33;67.32;;;25.08;;
43457;SDS011;29046;54.184;18.680;2023-02-28T00:41:01;75.22;;;28.13;;
43457;SDS011;29046;54.184;18.680;2023-02-28T00:43:32;30.00;;;12.80;;
43457;SDS011;29046;54.184;18.680;2023-02-28T00:46:03;33.95;;;13.32;;
43457;SDS011;29046;54.184;18.680;2023-02-28T00:48:31;15.65;;;8.20;;
43457;SDS011;29046;54.184;18.680;2023-02-28T00:50:59;12.85;;;7.15;;
43457;SDS011;29046;54.184;18.680;2023-02-28T00:53:26;14.23;;;7.05;;
43457;SDS011;29046;54.184;18.680;2023-02-28T00:55:54;13.02;;;6.70;;
43457;SDS011;29046;54.184;18.680;2023-02-28T00:58:21;11.80;;;6.18;;
43457;SDS011;29046;54.184;18.680;2023-02-28T01:00:48;13.77;;;6.25;;
43457;SDS011;29046;54.184;18.680;2023-02-28T01:03:16;12.10;;;5.43;;
43457;SDS011;29046;54.184;18.680;2023-02-28T01:05:44;9.10;;;4.72;;
43457;SDS011;29046;54.184;18.680;2023-02-28T01:08:12;10.60;;;5.30;;
43457;SDS011;29046;54.184;18.680;2023-02-28T01:10:41;8.63;;;4.55;;
43457;SDS011;29046;54.184;18.680;2023-02-28T01:13:08;9.82;;;4.22;;
43457;SDS011;29046;54.184;18.680;2023-02-28T01:15:35;13.15;;;4.75;;
43457;SDS011;29046;54.184;18.680;2023-02-28T01:18:03;12.48;;;4.97;;
43457;SDS011;29046;54.184;18.680;2023-02-28T01:20:30;9.63;;;4.18;;
43457;SDS011;29046;54.184;18.680;2023-02-28T01:22:57;11.00;;;4.88;;
43457;SDS011;29046;54.184;18.680;2023-02-28T01:25:24;11.40;;;5.85;;
43457;SDS011;29046;54.184;18.680;2023-02-28T01:27:51;21.48;;;10.00;;
43457;SDS011;29046;54.184;18.680;2023-02-28T01:30:19;11.95;;;5.88;;
43457;SDS011;29046;54.184;18.680;2023-02-28T01:32:46;10.93;;;4.90;;
43457;SDS011;29046;54.184;18.680;2023-02-28T01:35:13;12.50;;;5.80;;
43457;SDS011;29046;54.184;18.680;2023-02-28T01:37:40;14.35;;;6.25;;
43457;SDS011;29046;54.184;18.680;2023-02-28T01:40:08;12.73;;;6.80;;
43457;SDS011;29046;54.184;18.680;2023-02-28T01:42:35;19.70;;;11.07;;
43457;SDS011;29046;54.184;18.680;2023-02-28T01:47:52;8.45;;;4.60;;
43457;SDS011;29046;54.184;18.680;2023-02-28T01:50:25;8.90;;;3.83;;
43457;SDS011;29046;54.184;18.680;2023-02-28T01:52:56;9.15;;;4.13;;
43457;SDS011;29046;54.184;18.680;2023-02-28T01:55:28;15.02;;;3.72;;
43457;SDS011;29046;54.184;18.680;2023-02-28T01:57:57;6.35;;;3.20;;
43457;SDS011;29046;54.184;18.680;2023-02-28T02:00:27;8.13;;;3.05;;
43457;SDS011;29046;54.184;18.680;2023-02-28T02:02:59;7.55;;;2.45;;
43457;SDS011;29046;54.184;18.680;2023-02-28T02:05:31;6.53;;;2.13;;
43457;SDS011;29046;54.184;18.680;2023-02-28T02:08:01;6.35;;;2.75;;
43457;SDS011;29046;54.184;18.680;2023-02-28T02:10:32;6.85;;;2.05;;
43457;SDS011;29046;54.184;18.680;2023-02-28T02:13:17;8.43;;;5.35;;
43457;SDS011;29046;54.184;18.680;2023-02-28T02:18:37;8.10;;;4.40;;
43457;SDS011;29046;54.184;18.680;2023-02-28T02:32:04;8.05;;;3.08;;
43457;SDS011;29046;54.184;18.680;2023-02-28T02:38:17;9.38;;;4.07;;
43457;SDS011;29046;54.184;18.680;2023-02-28T02:40:29;10.23;;;3.20;;
43457;SDS011;29046;54.184;18.680;2023-02-28T02:46:04;11.98;;;3.47;;
43457;SDS011;29046;54.184;18.680;2023-02-28T02:48:37;11.13;;;4.07;;
43457;SDS011;29046;54.184;18.680;2023-02-28T02:51:10;7.57;;;2.92;;
43457;SDS011;29046;54.184;18.680;2023-02-28T02:53:43;11.18;;;3.67;;
43457;SDS011;29046;54.184;18.680;2023-02-28T02:56:17;12.27;;;4.78;;
43457;SDS011;29046;54.184;18.680;2023-02-28T02:58:49;13.15;;;6.30;;
43457;SDS011;29046;54.184;18.680;2023-02-28T03:01:19;16.98;;;6.68;;
43457;SDS011;29046;54.184;18.680;2023-02-28T03:03:59;14.85;;;7.78;;
43457;SDS011;29046;54.184;18.680;2023-02-28T03:06:29;15.50;;;6.85;;
43457;SDS011;29046;54.184;18.680;2023-02-28T03:08:56;13.13;;;7.20;;
43457;SDS011;29046;54.184;18.680;2023-02-28T03:11:23;20.60;;;9.13;;
43457;SDS011;29046;54.184;18.680;2023-02-28T03:24:43;41.67;;;18.88;;
43457;SDS011;29046;54.184;18.680;2023-02-28T03:32:32;29.60;;;15.25;;
43457;SDS011;29046;54.184;18.680;2023-02-28T03:37:56;24.35;;;12.18;;
43457;SDS011;29046;54.184;18.680;2023-02-28T03:40:31;33.10;;;13.35;;
43457;SDS011;29046;54.184;18.680;2023-02-28T03:43:03;30.33;;;13.85;;
43457;SDS011;29046;54.184;18.680;2023-02-28T03:45:36;27.17;;;14.05;;
43457;SDS011;29046;54.184;18.680;2023-02-28T03:48:11;25.98;;;13.50;;
43457;SDS011;29046;54.184;18.680;2023-02-28T03:50:46;26.17;;;13.52;;
43457;SDS011;29046;54.184;18.680;2023-02-28T03:53:31;25.63;;;12.32;;
43457;SDS011;29046;54.184;18.680;2023-02-28T03:56:06;25.17;;;12.18;;
43457;SDS011;29046;54.184;18.680;2023-02-28T04:01:15;25.67;;;12.88;;
43457;SDS011;29046;54.184;18.680;2023-02-28T04:04:10;23.70;;;11.07;;
43457;SDS011;29046;54.184;18.680;2023-02-28T04:06:38;17.80;;;8.38;;
43457;SDS011;29046;54.184;18.680;2023-02-28T04:09:07;18.77;;;8.30;;
43457;SDS011;29046;54.184;18.680;2023-02-28T04:11:39;19.05;;;7.78;;
43457;SDS011;29046;54.184;18.680;2023-02-28T04:14:08;16.55;;;6.65;;
43457;SDS011;29046;54.184;18.680;2023-02-28T04:16:38;15.52;;;9.40;;
43457;SDS011;29046;54.184;18.680;2023-02-28T04:19:07;16.65;;;9.90;;
43457;SDS011;29046;54.184;18.680;2023-02-28T04:21:45;18.80;;;12.70;;
43457;SDS011;29046;54.184;18.680;2023-02-28T04:24:15;17.40;;;11.15;;
43457;SDS011;29046;54.184;18.680;2023-02-28T04:26:53;20.80;;;10.60;;
43457;SDS011;29046;54.184;18.680;2023-02-28T04:29:26;21.13;;;11.02;;
43457;SDS011;29046;54.184;18.680;2023-02-28T04:34:28;21.83;;;9.07;;
43457;SDS011;29046;54.184;18.680;2023-02-28T04:36:57;9.48;;;5.10;;
43457;SDS011;29046;54.184;18.680;2023-02-28T04:39:38;14.05;;;5.30;;
43457;SDS011;29046;54.184;18.680;2023-02-28T04:42:05;15.25;;;6.95;;
43457;SDS011;29046;54.184;18.680;2023-02-28T04:44:33;16.13;;;8.40;;
43457;SDS011;29046;54.184;18.680;2023-02-28T04:47:00;15.07;;;6.97;;
43457;SDS011;29046;54.184;18.680;2023-02-28T04:49:27;27.33;;;12.68;;
43457;SDS011;29046;54.184;18.680;2023-02-28T04:51:54;16.85;;;8.65;;
43457;SDS011;29046;54.184;18.680;2023-02-28T04:54:22;21.05;;;10.32;;
43457;SDS011;29046;54.184;18.680;2023-02-28T04:56:49;17.98;;;9.15;;
43457;SDS011;29046;54.184;18.680;2023-02-28T04:59:16;17.50;;;9.70;;
43457;SDS011;29046;54.184;18.680;2023-02-28T05:01:47;13.20;;;5.82;;
43457;SDS011;29046;54.184;18.680;2023-02-28T05:04:15;23.80;;;11.63;;
43457;SDS011;29046;54.184;18.680;2023-02-28T05:06:44;20.00;;;8.38;;
43457;SDS011;29046;54.184;18.680;2023-02-28T05:09:11;11.85;;;6.07;;
43457;SDS011;29046;54.184;18.680;2023-02-28T05:11:38;9.85;;;4.82;;
43457;SDS011;29046;54.184;18.680;2023-02-28T05:14:09;11.82;;;5.95;;
43457;SDS011;29046;54.184;18.680;2023-02-28T05:16:38;11.57;;;6.75;;
43457;SDS011;29046;54.184;18.680;2023-02-28T05:19:05;14.40;;;6.82;;
43457;SDS011;29046;54.184;18.680;2023-02-28T05:21:34;11.55;;;5.68;;
43457;SDS011;29046;54.184;18.680;2023-02-28T05:24:06;9.38;;;6.35;;
43457;SDS011;29046;54.184;18.680;2023-02-28T05:26:37;9.30;;;5.00;;
43457;SDS011;29046;54.184;18.680;2023-02-28T05:29:06;9.43;;;3.88;;
43457;SDS011;29046;54.184;18.680;2023-02-28T05:31:34;10.05;;;4.00;;
43457;SDS011;29046;54.184;18.680;2023-02-28T05:34:02;8.43;;;4.03;;
43457;SDS011;29046;54.184;18.680;2023-02-28T05:36:33;7.13;;;3.42;;
43457;SDS011;29046;54.184;18.680;2023-02-28T05:39:00;9.32;;;5.18;;
43457;SDS011;29046;54.184;18.680;2023-02-28T05:41:27;10.05;;;5.55;;
43457;SDS011;29046;54.184;18.680;2023-02-28T05:43:55;8.35;;;4.65;;
43457;SDS011;29046;54.184;18.680;2023-02-28T05:46:23;9.90;;;5.20;;
43457;SDS011;29046;54.184;18.680;2023-02-28T05:48:50;11.70;;;6.15;;
43457;SDS011;29046;54.184;18.680;2023-02-28T05:51:18;12.93;;;5.78;;
43457;SDS011;29046;54.184;18.680;2023-02-28T05:53:45;11.98;;;5.10;;
43457;SDS011;29046;54.184;18.680;2023-02-28T05:56:12;10.45;;;4.95;;
43457;SDS011;29046;54.184;18.680;2023-02-28T05:58:39;12.18;;;5.35;;
43457;SDS011;29046;54.184;18.680;2023-02-28T06:01:19;14.38;;;5.90;;
43457;SDS011;29046;54.184;18.680;2023-02-28T06:04:02;17.10;;;8.77;;
43457;SDS011;29046;54.184;18.680;2023-02-28T06:06:31;14.15;;;7.53;;
43457;SDS011;29046;54.184;18.680;2023-02-28T06:09:05;34.17;;;11.98;;
43457;SDS011;29046;54.184;18.680;2023-02-28T06:11:33;31.52;;;14.23;;
43457;SDS011;29046;54.184;18.680;2023-02-28T06:14:00;52.38;;;21.98;;
43457;SDS011;29046;54.184;18.680;2023-02-28T06:16:29;39.60;;;16.13;;
43457;SDS011;29046;54.184;18.680;2023-02-28T06:18:57;27.20;;;12.73;;
43457;SDS011;29046;54.184;18.680;2023-02-28T06:21:26;15.90;;;9.00;;
43457;SDS011;29046;54.184;18.680;2023-02-28T06:23:55;19.20;;;9.07;;
43457;SDS011;29046;54.184;18.680;2023-02-28T06:26:23;12.85;;;5.07;;
43457;SDS011;29046;54.184;18.680;2023-02-28T06:28:51;13.52;;;10.75;;
43457;SDS011;29046;54.184;18.680;2023-02-28T06:31:18;8.45;;;5.80;;
43457;SDS011;29046;54.184;18.680;2023-02-28T06:33:46;6.55;;;5.20;;
43457;SDS011;29046;54.184;18.680;2023-02-28T06:36:14;9.25;;;3.75;;
43457;SDS011;29046;54.184;18.680;2023-02-28T06:38:42;6.93;;;3.92;;
43457;SDS011;29046;54.184;18.680;2023-02-28T06:41:11;10.57;;;4.10;;
43457;SDS011;29046;54.184;18.680;2023-02-28T06:43:39;7.63;;;4.07;;
43457;SDS011;29046;54.184;18.680;2023-02-28T06:46:10;13.85;;;7.72;;
43457;SDS011;29046;54.184;18.680;2023-02-28T06:48:40;13.60;;;5.82;;
43457;SDS011;29046;54.184;18.680;2023-02-28T06:51:11;17.48;;;8.70;;
43457;SDS011;29046;54.184;18.680;2023-02-28T06:53:48;26.52;;;10.93;;
43457;SDS011;29046;54.184;18.680;2023-02-28T06:56:17;40.30;;;15.60;;
43457;SDS011;29046;54.184;18.680;2023-02-28T06:58:49;22.35;;;8.60;;
43457;SDS011;29046;54.184;18.680;2023-02-28T07:01:19;12.05;;;5.68;;
43457;SDS011;29046;54.184;18.680;2023-02-28T07:03:46;15.88;;;7.10;;
43457;SDS011;29046;54.184;18.680;2023-02-28T07:06:19;9.60;;;4.75;;
43457;SDS011;29046;54.184;18.680;2023-02-28T07:08:50;12.68;;;4.78;;
43457;SDS011;29046;54.184;18.680;2023-02-28T07:11:20;6.20;;;3.78;;
43457;SDS011;29046;54.184;18.680;2023-02-28T07:13:55;13.30;;;5.70;;
43457;SDS011;29046;54.184;18.680;2023-02-28T07:16:23;10.48;;;5.35;;
43457;SDS011;29046;54.184;18.680;2023-02-28T07:18:52;13.07;;;5.65;;
43457;SDS011;29046;54.184;18.680;2023-02-28T07:21:21;8.35;;;4.70;;
43457;SDS011;29046;54.184;18.680;2023-02-28T07:23:49;8.43;;;4.97;;
43457;SDS011;29046;54.184;18.680;2023-02-28T07:26:17;9.23;;;4.50;;
43457;SDS011;29046;54.184;18.680;2023-02-28T07:28:47;10.45;;;4.72;;
43457;SDS011;29046;54.184;18.680;2023-02-28T07:31:15;9.27;;;5.00;;
43457;SDS011;29046;54.184;18.680;2023-02-28T07:33:43;8.98;;;5.00;;
43457;SDS011;29046;54.184;18.680;2023-02-28T07:36:13;11.80;;;5.35;;
43457;SDS011;29046;54.184;18.680;2023-02-28T07:38:42;7.63;;;4.47;;
43457;SDS011;29046;54.184;18.680;2023-02-28T07:41:14;11.50;;;4.68;;
43457;SDS011;29046;54.184;18.680;2023-02-28T07:43:42;8.38;;;4.45;;
43457;SDS011;29046;54.184;18.680;2023-02-28T07:46:12;9.27;;;4.82;;
43457;SDS011;29046;54.184;18.680;2023-02-28T07:48:41;11.98;;;5.28;;
43457;SDS011;29046;54.184;18.680;2023-02-28T07:51:09;10.82;;;6.32;;
43457;SDS011;29046;54.184;18.680;2023-02-28T07:53:37;11.57;;;4.93;;
43457;SDS011;29046;54.184;18.680;2023-02-28T07:56:04;10.93;;;5.22;;
43457;SDS011;29046;54.184;18.680;2023-02-28T07:58:32;9.13;;;5.50;;
43457;SDS011;29046;54.184;18.680;2023-02-28T08:01:06;13.88;;;6.93;;
43457;SDS011;29046;54.184;18.680;2023-02-28T08:03:35;20.23;;;10.00;;
43457;SDS011;29046;54.184;18.680;2023-02-28T08:06:04;10.45;;;7.38;;
43457;SDS011;29046;54.184;18.680;2023-02-28T08:08:32;11.95;;;7.30;;
43457;SDS011;29046;54.184;18.680;2023-02-28T08:11:00;15.80;;;7.70;;
43457;SDS011;29046;54.184;18.680;2023-02-28T08:13:28;14.57;;;7.50;;
43457;SDS011;29046;54.184;18.680;2023-02-28T08:15:56;10.18;;;7.45;;
43457;SDS011;29046;54.184;18.680;2023-02-28T08:18:24;11.75;;;7.03;;
43457;SDS011;29046;54.184;18.680;2023-02-28T08:20:51;13.38;;;7.40;;
43457;SDS011;29046;54.184;18.680;2023-02-28T08:23:18;14.60;;;7.72;;
43457;SDS011;29046;54.184;18.680;2023-02-28T08:25:52;15.73;;;8.30;;
43457;SDS011;29046;54.184;18.680;2023-02-28T08:28:21;12.73;;;7.35;;
43457;SDS011;29046;54.184;18.680;2023-02-28T08:30:51;17.33;;;8.13;;
43457;SDS011;29046;54.184;18.680;2023-02-28T08:33:18;16.60;;;7.97;;
43457;SDS011;29046;54.184;18.680;2023-02-28T08:35:46;12.63;;;7.47;;
43457;SDS011;29046;54.184;18.680;2023-02-28T08:38:13;18.25;;;8.15;;
43457;SDS011;29046;54.184;18.680;2023-02-28T08:40:40;17.52;;;8.25;;
43457;SDS011;29046;54.184;18.680;2023-02-28T08:43:07;14.43;;;8.10;;
43457;SDS011;29046;54.184;18.680;2023-02-28T08:45:34;14.45;;;7.55;;
43457;SDS011;29046;54.184;18.680;2023-02-28T08:48:01;37.88;;;16.33;;
43457;SDS011;29046;54.184;18.680;2023-02-28T08:50:29;15.40;;;10.00;;
43457;SDS011;29046;54.184;18.680;2023-02-28T08:52:56;16.77;;;11.60;;
43457;SDS011;29046;54.184;18.680;2023-02-28T08:55:23;12.55;;;7.22;;
43457;SDS011;29046;54.184;18.680;2023-02-28T08:57:50;11.05;;;6.90;;
43457;SDS011;29046;54.184;18.680;2023-02-28T09:00:19;11.52;;;6.03;;
43457;SDS011;29046;54.184;18.680;2023-02-28T09:02:46;8.88;;;6.15;;
43457;SDS011;29046;54.184;18.680;2023-02-28T09:05:14;13.38;;;6.53;;
43457;SDS011;29046;54.184;18.680;2023-02-28T09:07:41;7.82;;;5.50;;
43457;SDS011;29046;54.184;18.680;2023-02-28T09:10:09;7.70;;;5.55;;
43457;SDS011;29046;54.184;18.680;2023-02-28T09:12:36;8.13;;;5.55;;
43457;SDS011;29046;54.184;18.680;2023-02-28T09:15:04;14.10;;;7.68;;
43457;SDS011;29046;54.184;18.680;2023-02-28T09:17:31;8.80;;;7.60;;
43457;SDS011;29046;54.184;18.680;2023-02-28T09:19:58;12.02;;;8.40;;
43457;SDS011;29046;54.184;18.680;2023-02-28T09:22:25;11.43;;;7.82;;
43457;SDS011;29046;54.184;18.680;2023-02-28T09:24:53;10.90;;;7.70;;
43457;SDS011;29046;54.184;18.680;2023-02-28T09:27:20;13.52;;;7.68;;
43457;SDS011;29046;54.184;18.680;2023-02-28T09:29:47;8.90;;;7.50;;
43457;SDS011;29046;54.184;18.680;2023-02-28T09:32:14;11.32;;;8.27;;
43457;SDS011;29046;54.184;18.680;2023-02-28T09:34:42;9.80;;;7.57;;
43457;SDS011;29046;54.184;18.680;2023-02-28T09:37:09;11.43;;;8.48;;
43457;SDS011;29046;54.184;18.680;2023-02-28T09:39:37;10.10;;;8.65;;
43457;SDS011;29046;54.184;18.680;2023-02-28T09:42:04;8.77;;;7.05;;
43457;SDS011;29046;54.184;18.680;2023-02-28T09:44:41;9.20;;;7.63;;
43457;SDS011;29046;54.184;18.680;2023-02-28T09:49:53;21.65;;;14.82;;
43457;SDS011;29046;54.184;18.680;2023-02-28T09:52:28;8.60;;;7.65;;
43457;SDS011;29046;54.184;18.680;2023-02-28T09:55:04;9.00;;;6.38;;
43457;SDS011;29046;54.184;18.680;2023-02-28T09:58:08;13.35;;;6.38;;
43457;SDS011;29046;54.184;18.680;2023-02-28T10:01:20;13.82;;;7.13;;
43457;SDS011;29046;54.184;18.680;2023-02-28T10:04:00;9.82;;;7.40;;
43457;SDS011;29046;54.184;18.680;2023-02-28T10:06:51;8.20;;;6.85;;
43457;SDS011;29046;54.184;18.680;2023-02-28T10:09:24;13.55;;;8.40;;
43457;SDS011;29046;54.184;18.680;2023-02-28T10:12:08;15.73;;;7.55;;
43457;SDS011;29046;54.184;18.680;2023-02-28T10:14:38;12.05;;;7.57;;
43457;SDS011;29046;54.184;18.680;2023-02-28T10:17:15;10.35;;;6.97;;
43457;SDS011;29046;54.184;18.680;2023-02-28T10:22:40;8.73;;;7.72;;
43457;SDS011;29046;54.184;18.680;2023-02-28T10:25:28;8.95;;;6.75;;
43457;SDS011;29046;54.184;18.680;2023-02-28T10:27:58;10.43;;;7.30;;
43457;SDS011;29046;54.184;18.680;2023-02-28T10:30:32;13.60;;;10.52;;
43457;SDS011;29046;54.184;18.680;2023-02-28T10:32:59;10.00;;;8.88;;
43457;SDS011;29046;54.184;18.680;2023-02-28T10:35:26;13.60;;;12.43;;
43457;SDS011;29046;54.184;18.680;2023-02-28T10:37:55;13.43;;;12.13;;
43457;SDS011;29046;54.184;18.680;2023-02-28T10:43:01;13.27;;;10.70;;
43457;SDS011;29046;54.184;18.680;2023-02-28T10:45:33;11.20;;;10.18;;
43457;SDS011;29046;54.184;18.680;2023-02-28T10:58:44;10.18;;;8.90;;
43457;SDS011;29046;54.184;18.680;2023-02-28T11:01:22;11.65;;;7.47;;
43457;SDS011;29046;54.184;18.680;2023-02-28T11:04:38;8.25;;;7.30;;
43457;SDS011;29046;54.184;18.680;2023-02-28T11:07:04;21.83;;;11.35;;
43457;SDS011;29046;54.184;18.680;2023-02-28T11:09:41;11.25;;;8.55;;
43457;SDS011;29046;54.184;18.680;2023-02-28T11:15:03;10.48;;;9.30;;
43457;SDS011;29046;54.184;18.680;2023-02-28T11:17:33;10.25;;;9.32;;
43457;SDS011;29046;54.184;18.680;2023-02-28T11:20:04;10.30;;;9.32;;
43457;SDS011;29046;54.184;18.680;2023-02-28T11:22:35;11.00;;;9.93;;
43457;SDS011;29046;54.184;18.680;2023-02-28T11:25:20;9.55;;;8.43;;
43457;SDS011;29046;54.184;18.680;2023-02-28T11:27:57;11.00;;;7.43;;
43457;SDS011;29046;54.184;18.680;2023-02-28T11:30:40;10.93;;;9.90;;
43457;SDS011;29046;54.184;18.680;2023-02-28T11:33:23;10.90;;;9.88;;
43457;SDS011;29046;54.184;18.680;2023-02-28T11:36:00;9.75;;;8.85;;
43457;SDS011;29046;54.184;18.680;2023-02-28T11:38:31;12.13;;;10.43;;
43457;SDS011;29046;54.184;18.680;2023-02-28T11:41:09;14.80;;;13.40;;
43457;SDS011;29046;54.184;18.680;2023-02-28T11:46:52;15.13;;;13.98;;
43457;SDS011;29046;54.184;18.680;2023-02-28T11:52:36;13.30;;;12.23;;
43457;SDS011;29046;54.184;18.680;2023-02-28T11:55:15;12.52;;;11.43;;
43457;SDS011;29046;54.184;18.680;2023-02-28T11:57:49;13.98;;;12.77;;
43457;SDS011;29046;54.184;18.680;2023-02-28T12:05:46;20.02;;;18.63;;
43457;SDS011;29046;54.184;18.680;2023-02-28T12:22:40;19.27;;;17.63;;
43457;SDS011;29046;54.184;18.680;2023-02-28T12:25:37;18.65;;;17.30;;
43457;SDS011;29046;54.184;18.680;2023-02-28T12:28:10;17.48;;;15.88;;
43457;SDS011;29046;54.184;18.680;2023-02-28T12:30:44;20.65;;;19.15;;
43457;SDS011;29046;54.184;18.680;2023-02-28T12:33:26;22.83;;;21.08;;
43457;SDS011;29046;54.184;18.680;2023-02-28T12:35:59;22.95;;;21.13;;
43457;SDS011;29046;54.184;18.680;2023-02-28T12:43:59;17.30;;;15.70;;
43457;SDS011;29046;54.184;18.680;2023-02-28T12:46:35;17.90;;;16.40;;
43457;SDS011;29046;54.184;18.680;2023-02-28T12:52:11;25.55;;;23.58;;
43457;SDS011;29046;54.184;18.680;2023-02-28T13:00:25;28.60;;;26.50;;
43457;SDS011;29046;54.184;18.680;2023-02-28T13:11:30;38.33;;;36.03;;
43457;SDS011;29046;54.184;18.680;2023-02-28T13:13:59;42.40;;;39.80;;
43457;SDS011;29046;54.184;18.680;2023-02-28T13:19:21;45.40;;;42.67;;
43457;SDS011;29046;54.184;18.680;2023-02-28T13:21:50;36.88;;;34.72;;
43457;SDS011;29046;54.184;18.680;2023-02-28T13:27:35;25.48;;;23.70;;
43457;SDS011;29046;54.184;18.680;2023-02-28T13:38:39;17.20;;;16.05;;
43457;SDS011;29046;54.184;18.680;2023-02-28T13:43:59;29.75;;;24.55;;
43457;SDS011;29046;54.184;18.680;2023-02-28T13:46:30;18.70;;;17.30;;
43457;SDS011;29046;54.184;18.680;2023-02-28T14:03:07;19.05;;;17.15;;
43457;SDS011;29046;54.184;18.680;2023-02-28T14:05:44;19.85;;;18.05;;
43457;SDS011;29046;54.184;18.680;2023-02-28T14:08:14;19.10;;;17.77;;
43457;SDS011;29046;54.184;18.680;2023-02-28T14:10:45;25.48;;;23.58;;
43457;SDS011;29046;54.184;18.680;2023-02-28T14:16:13;23.77;;;22.10;;
43457;SDS011;29046;54.184;18.680;2023-02-28T14:18:50;23.65;;;22.02;;
43457;SDS011;29046;54.184;18.680;2023-02-28T14:21:23;20.33;;;18.60;;
43457;SDS011;29046;54.184;18.680;2023-02-28T14:32:03;18.15;;;16.80;;
43457;SDS011;29046;54.184;18.680;2023-02-28T14:34:45;18.10;;;16.65;;
43457;SDS011;29046;54.184;18.680;2023-02-28T14:37:20;22.42;;;20.33;;
43457;SDS011;29046;54.184;18.680;2023-02-28T14:39:58;19.67;;;17.90;;
43457;SDS011;29046;54.184;18.680;2023-02-28T14:42:27;18.95;;;17.13;;
43457;SDS011;29046;54.184;18.680;2023-02-28T14:44:56;20.02;;;18.35;;
43457;SDS011;29046;54.184;18.680;2023-02-28T14:47:28;18.95;;;17.23;;
43457;SDS011;29046;54.184;18.680;2023-02-28T14:50:00;17.52;;;15.88;;
43457;SDS011;29046;54.184;18.680;2023-02-28T14:52:30;17.73;;;16.13;;
43457;SDS011;29046;54.184;18.680;2023-02-28T14:55:06;15.98;;;14.38;;
43457;SDS011;29046;54.184;18.680;2023-02-28T14:57:43;13.90;;;12.73;;
43457;SDS011;29046;54.184;18.680;2023-02-28T15:00:26;15.30;;;14.02;;
43457;SDS011;29046;54.184;18.680;2023-02-28T15:02:56;16.17;;;14.77;;
43457;SDS011;29046;54.184;18.680;2023-02-28T15:05:26;15.23;;;13.90;;
43457;SDS011;29046;54.184;18.680;2023-02-28T15:10:43;17.02;;;15.48;;
43457;SDS011;29046;54.184;18.680;2023-02-28T15:13:19;18.70;;;16.80;;
43457;SDS011;29046;54.184;18.680;2023-02-28T15:15:55;17.50;;;15.77;;
43457;SDS011;29046;54.184;18.680;2023-02-28T15:18:30;15.82;;;14.60;;
43457;SDS011;29046;54.184;18.680;2023-02-28T15:21:06;16.88;;;15.32;;
43457;SDS011;29046;54.184;18.680;2023-02-28T15:26:09;21.42;;;19.27;;
43457;SDS011;29046;54.184;18.680;2023-02-28T15:28:45;28.33;;;25.60;;
43457;SDS011;29046;54.184;18.680;2023-02-28T15:31:23;31.15;;;27.98;;
43457;SDS011;29046;54.184;18.680;2023-02-28T15:34:22;32.03;;;27.27;;
43457;SDS011;29046;54.184;18.680;2023-02-28T15:39:57;30.52;;;27.33;;
43457;SDS011;29046;54.184;18.680;2023-02-28T15:45:26;40.70;;;32.90;;
43457;SDS011;29046;54.184;18.680;2023-02-28T15:48:01;48.40;;;36.25;;
43457;SDS011;29046;54.184;18.680;2023-02-28T15:50:39;39.58;;;35.67;;
43457;SDS011;29046;54.184;18.680;2023-02-28T15:53:12;32.05;;;28.73;;
43457;SDS011;29046;54.184;18.680;2023-02-28T15:55:41;35.05;;;29.63;;
43457;SDS011;29046;54.184;18.680;2023-02-28T15:58:11;26.98;;;24.13;;
43457;SDS011;29046;54.184;18.680;2023-02-28T16:00:39;30.98;;;27.73;;
43457;SDS011;29046;54.184;18.680;2023-02-28T16:03:25;24.55;;;22.08;;
43457;SDS011;29046;54.184;18.680;2023-02-28T16:08:58;36.03;;;21.85;;
43457;SDS011;29046;54.184;18.680;2023-02-28T16:11:26;95.80;;;64.68;;
43457;SDS011;29046;54.184;18.680;2023-02-28T16:13:54;48.35;;;33.70;;
43457;SDS011;29046;54.184;18.680;2023-02-28T16:16:22;36.33;;;28.10;;
43457;SDS011;29046;54.184;18.680;2023-02-28T16:18:52;15.80;;;12.20;;
43457;SDS011;29046;54.184;18.680;2023-02-28T16:21:20;12.90;;;9.73;;
43457;SDS011;29046;54.184;18.680;2023-02-28T16:23:47;11.60;;;10.38;;
43457;SDS011;29046;54.184;18.680;2023-02-28T16:26:18;22.73;;;14.75;;
43457;SDS011;29046;54.184;18.680;2023-02-28T16:28:49;26.35;;;16.00;;
43457;SDS011;29046;54.184;18.680;2023-02-28T16:31:17;35.03;;;18.27;;
43457;SDS011;29046;54.184;18.680;2023-02-28T16:33:45;21.63;;;15.00;;
43457;SDS011;29046;54.184;18.680;2023-02-28T16:36:22;74.88;;;43.17;;
43457;SDS011;29046;54.184;18.680;2023-02-28T16:38:53;48.90;;;33.10;;
43457;SDS011;29046;54.184;18.680;2023-02-28T16:41:22;51.72;;;30.90;;
43457;SDS011;29046;54.184;18.680;2023-02-28T16:43:53;19.08;;;13.73;;
43457;SDS011;29046;54.184;18.680;2023-02-28T16:46:31;21.40;;;13.05;;
43457;SDS011;29046;54.184;18.680;2023-02-28T16:49:01;30.42;;;19.15;;
43457;SDS011;29046;54.184;18.680;2023-02-28T16:51:28;60.90;;;36.45;;
43457;SDS011;29046;54.184;18.680;2023-02-28T16:53:57;66.93;;;43.33;;
43457;SDS011;29046;54.184;18.680;2023-02-28T16:56:24;28.95;;;18.40;;
43457;SDS011;29046;54.184;18.680;2023-02-28T16:58:52;36.63;;;21.65;;
43457;SDS011;29046;54.184;18.680;2023-02-28T17:01:24;24.85;;;15.00;;
43457;SDS011;29046;54.184;18.680;2023-02-28T17:03:52;27.83;;;15.02;;
43457;SDS011;29046;54.184;18.680;2023-02-28T17:06:21;22.70;;;13.63;;
43457;SDS011;29046;54.184;18.680;2023-02-28T17:08:51;44.30;;;25.52;;
43457;SDS011;29046;54.184;18.680;2023-02-28T17:11:18;34.28;;;20.42;;
43457;SDS011;29046;54.184;18.680;2023-02-28T17:13:46;31.77;;;18.30;;
43457;SDS011;29046;54.184;18.680;2023-02-28T17:18:50;15.63;;;9.63;;
43457;SDS011;29046;54.184;18.680;2023-02-28T17:21:18;12.20;;;7.28;;
43457;SDS011;29046;54.184;18.680;2023-02-28T17:23:45;17.65;;;8.82;;
43457;SDS011;29046;54.184;18.680;2023-02-28T17:26:15;13.55;;;7.97;;
43457;SDS011;29046;54.184;18.680;2023-02-28T17:28:51;15.23;;;9.15;;
43457;SDS011;29046;54.184;18.680;2023-02-28T17:31:20;13.27;;;8.02;;
43457;SDS011;29046;54.184;18.680;2023-02-28T17:33:47;19.92;;;9.07;;
43457;SDS011;29046;54.184;18.680;2023-02-28T17:36:15;23.30;;;12.85;;
43457;SDS011;29046;54.184;18.680;2023-02-28T17:38:44;29.80;;;16.15;;